createdAt,value
2023-04-15T00:00:01.741Z,10.07
2023-04-15T00:02:28.491Z,8.57
2023-04-15T00:04:55.006Z,8.68
2023-04-15T00:07:21.533Z,9.23
2023-04-15T00:09:47.840Z,9.30
2023-04-15T00:12:14.215Z,9.30
2023-04-15T00:14:40.690Z,7.93
2023-04-15T00:17:06.982Z,8.20
2023-04-15T00:19:33.358Z,8.57
2023-04-15T00:21:59.731Z,8.38
2023-04-15T00:24:26.028Z,8.38
2023-04-15T00:26:52.487Z,7.55
2023-04-15T00:29:18.928Z,7.75
2023-04-15T00:31:45.553Z,6.95
2023-04-15T00:34:11.936Z,6.60
2023-04-15T00:36:38.254Z,7.18
2023-04-15T00:39:04.632Z,8.18
2023-04-15T00:41:31.093Z,8.07
2023-04-15T00:43:57.403Z,7.47
2023-04-15T00:46:23.740Z,7.13
2023-04-15T00:48:50.168Z,8.10
2023-04-15T00:51:16.556Z,7.43
2023-04-15T00:53:42.897Z,6.80
2023-04-15T00:56:09.263Z,6.78
2023-04-15T00:58:35.614Z,6.63
2023-04-15T01:01:01.973Z,6.60
2023-04-15T01:03:29.454Z,6.85
2023-04-15T01:05:55.885Z,6.38
2023-04-15T01:08:22.501Z,6.53
2023-04-15T01:10:48.946Z,6.18
2023-04-15T01:13:15.256Z,5.90
2023-04-15T01:15:41.592Z,6.97
2023-04-15T01:18:07.974Z,7.07
2023-04-15T01:20:37.184Z,5.65
2023-04-15T01:23:03.517Z,6.07
2023-04-15T01:25:29.950Z,5.35
2023-04-15T01:27:56.307Z,5.80
2023-04-15T01:30:22.645Z,5.93
2023-04-15T01:32:49.067Z,5.60
2023-04-15T01:35:15.415Z,5.45
2023-04-15T01:37:41.733Z,6.22
2023-04-15T01:40:08.581Z,4.95
2023-04-15T01:42:35.708Z,6.03
2023-04-15T01:45:02.024Z,5.63
2023-04-15T01:47:28.422Z,5.43
2023-04-15T01:49:54.782Z,5.55
2023-04-15T01:52:21.742Z,5.75
2023-04-15T01:54:48.161Z,5.50
2023-04-15T01:57:14.516Z,4.60
2023-04-15T01:59:40.849Z,4.82
2023-04-15T02:02:07.256Z,5.22
2023-04-15T02:04:33.617Z,4.65
2023-04-15T02:06:59.940Z,4.97
2023-04-15T02:09:26.331Z,5.28
2023-04-15T02:11:52.665Z,5.55
2023-04-15T02:14:19.002Z,4.53
2023-04-15T02:16:46.626Z,4.63
2023-04-15T02:19:15.565Z,4.50
2023-04-15T02:21:41.923Z,4.75
2023-04-15T02:24:08.279Z,4.20
2023-04-15T02:26:34.618Z,4.70
2023-04-15T02:29:01.421Z,3.85
2023-04-15T02:31:28.137Z,4.30
2023-04-15T02:33:54.626Z,4.05
2023-04-15T02:36:20.974Z,4.22
2023-04-15T02:38:47.325Z,3.80
2023-04-15T02:41:15.042Z,4.70
2023-04-15T02:43:42.151Z,4.30
2023-04-15T02:46:09.298Z,4.03
2023-04-15T02:48:35.646Z,3.53
2023-04-15T02:51:03.262Z,4.22
2023-04-15T02:53:29.638Z,4.20
2023-04-15T02:55:55.971Z,4.63
2023-04-15T02:58:22.303Z,3.38
2023-04-15T03:00:48.712Z,3.72
2023-04-15T03:03:15.242Z,4.30
2023-04-15T03:05:41.714Z,3.72
2023-04-15T03:08:08.145Z,3.70
2023-04-15T03:10:34.482Z,3.75
2023-04-15T03:13:01.522Z,3.97
2023-04-15T03:15:27.971Z,3.40
2023-04-15T03:17:54.756Z,3.75
2023-04-15T03:20:21.173Z,3.65
2023-04-15T03:22:48.416Z,3.88
2023-04-15T03:25:14.999Z,4.18
2023-04-15T03:27:42.382Z,3.95
2023-04-15T03:30:08.770Z,3.30
2023-04-15T03:32:37.103Z,4.30
2023-04-15T03:35:05.762Z,3.63
2023-04-15T03:37:32.129Z,3.42
2023-04-15T03:39:58.438Z,3.38
2023-04-15T03:42:24.758Z,3.55
2023-04-15T03:44:51.104Z,3.70
2023-04-15T03:47:17.545Z,3.47
2023-04-15T03:49:43.874Z,3.10
2023-04-15T03:52:10.228Z,3.35
2023-04-15T03:54:36.582Z,3.38
2023-04-15T03:57:02.960Z,3.50
2023-04-15T03:59:29.324Z,3.53
2023-04-15T04:01:55.742Z,3.25
2023-04-15T04:04:22.217Z,3.45
2023-04-15T04:06:48.664Z,3.50
2023-04-15T04:09:14.980Z,3.28
2023-04-15T04:11:41.305Z,3.15
2023-04-15T04:14:07.668Z,3.80
2023-04-15T04:16:34.001Z,3.50
2023-04-15T04:19:00.601Z,3.67
2023-04-15T04:21:27.077Z,3.03
2023-04-15T04:23:53.398Z,3.30
2023-04-15T04:26:19.826Z,3.05
2023-04-15T04:28:46.251Z,3.45
2023-04-15T04:31:12.562Z,3.50
2023-04-15T04:33:38.893Z,3.13
2023-04-15T04:36:05.268Z,3.50
2023-04-15T04:38:31.566Z,3.35
2023-04-15T04:40:57.933Z,4.28
2023-04-15T04:43:24.495Z,3.20
2023-04-15T04:45:50.881Z,3.47
2023-04-15T04:48:17.224Z,4.13
2023-04-15T04:50:43.581Z,3.47
2023-04-15T04:53:09.898Z,4.25
2023-04-15T04:55:36.198Z,3.20
2023-04-15T04:58:02.572Z,4.40
2023-04-15T05:00:28.960Z,3.15
2023-04-15T05:02:55.629Z,3.10
2023-04-15T05:05:22.141Z,3.15
2023-04-15T05:07:48.457Z,3.22
2023-04-15T05:10:14.909Z,4.53
2023-04-15T05:12:41.341Z,3.83
2023-04-15T05:15:07.655Z,3.35
2023-04-15T05:17:34.013Z,3.85
2023-04-15T05:20:00.455Z,3.25
2023-04-15T05:22:26.804Z,2.80
2023-04-15T05:24:53.130Z,3.65
2023-04-15T05:27:19.512Z,4.13
2023-04-15T05:29:45.844Z,3.28
2023-04-15T05:32:12.273Z,4.22
2023-04-15T05:34:38.644Z,4.38
2023-04-15T05:37:04.975Z,3.67
2023-04-15T05:39:31.301Z,3.97
2023-04-15T05:41:57.690Z,4.20
2023-04-15T05:44:24.013Z,4.05
2023-04-15T05:46:50.321Z,4.95
2023-04-15T05:49:16.741Z,3.65
2023-04-15T05:51:43.051Z,4.13
2023-04-15T05:54:09.344Z,4.82
2023-04-15T05:56:35.767Z,3.72
2023-04-15T05:59:02.357Z,4.38
2023-04-15T06:01:28.846Z,4.07
2023-04-15T06:03:55.422Z,4.15
2023-04-15T06:06:21.852Z,3.42
2023-04-15T06:08:48.194Z,4.00
2023-04-15T06:11:14.560Z,4.07
2023-04-15T06:13:40.864Z,3.15
2023-04-15T06:16:07.241Z,3.70
2023-04-15T06:18:33.645Z,3.88
2023-04-15T06:21:00.047Z,3.53
2023-04-15T06:23:27.944Z,4.00
2023-04-15T06:25:54.449Z,3.40
2023-04-15T06:28:20.767Z,4.07
2023-04-15T06:30:47.104Z,3.65
2023-04-15T06:33:13.462Z,3.50
2023-04-15T06:35:39.778Z,4.63
2023-04-15T06:38:06.078Z,4.53
2023-04-15T06:40:32.444Z,4.75
2023-04-15T06:42:58.793Z,4.38
2023-04-15T06:45:25.146Z,4.93
2023-04-15T06:47:51.561Z,3.65
2023-04-15T06:50:17.902Z,4.82
2023-04-15T06:52:44.273Z,4.25
2023-04-15T06:55:10.664Z,5.05
2023-04-15T06:57:36.995Z,4.43
2023-04-15T07:00:03.329Z,5.05
2023-04-15T07:02:31.104Z,5.32
2023-04-15T07:04:57.509Z,6.53
2023-04-15T07:07:23.848Z,5.57
2023-04-15T07:09:50.235Z,6.70
2023-04-15T07:12:16.560Z,6.15
2023-04-15T07:14:42.861Z,5.38
2023-04-15T07:17:09.329Z,6.38
2023-04-15T07:19:35.780Z,6.13
2023-04-15T07:22:02.125Z,7.88
2023-04-15T07:24:28.490Z,5.10
2023-04-15T07:26:54.806Z,6.13
2023-04-15T07:29:21.140Z,5.50
2023-04-15T07:31:47.576Z,6.40
2023-04-15T07:34:13.955Z,5.65
2023-04-15T07:36:40.296Z,5.30
2023-04-15T07:39:06.712Z,6.85
2023-04-15T07:41:33.024Z,5.68
2023-04-15T07:43:59.396Z,6.85
2023-04-15T07:46:25.816Z,6.13
2023-04-15T07:48:52.216Z,6.22
2023-04-15T07:51:18.566Z,6.35
2023-04-15T07:53:44.925Z,5.75
2023-04-15T07:56:11.282Z,5.50
2023-04-15T07:58:37.615Z,5.53
2023-04-15T08:01:03.997Z,5.22
2023-04-15T08:03:30.525Z,5.65
2023-04-15T08:05:57.016Z,5.78
2023-04-15T08:08:23.389Z,5.00
2023-04-15T08:10:52.025Z,6.45
2023-04-15T08:13:18.876Z,6.05
2023-04-15T08:15:45.329Z,4.93
2023-04-15T08:18:11.659Z,5.78
2023-04-15T08:20:38.141Z,4.97
2023-04-15T08:23:04.512Z,5.28
2023-04-15T08:25:30.931Z,4.80
2023-04-15T08:27:57.320Z,5.03
2023-04-15T08:30:23.682Z,4.45
2023-04-15T08:32:50.094Z,5.45
2023-04-15T08:35:16.501Z,3.42
2023-04-15T08:37:42.912Z,5.60
2023-04-15T08:40:09.297Z,4.90
2023-04-15T08:42:35.709Z,5.32
2023-04-15T08:45:02.156Z,4.78
2023-04-15T08:47:28.613Z,4.05
2023-04-15T08:49:55.038Z,4.68
2023-04-15T08:52:21.411Z,5.15
2023-04-15T08:54:47.824Z,3.83
2023-04-15T08:57:14.220Z,4.30
2023-04-15T08:59:40.610Z,4.03
2023-04-15T09:02:07.014Z,4.57
2023-04-15T09:04:33.434Z,4.30
2023-04-15T09:06:59.787Z,4.18
2023-04-15T09:09:26.095Z,4.03
2023-04-15T09:11:52.497Z,4.15
2023-04-15T09:14:18.910Z,3.95
2023-04-15T09:16:45.277Z,4.15
2023-04-15T09:19:11.746Z,4.60
2023-04-15T09:21:38.083Z,4.53
2023-04-15T09:24:04.539Z,3.72
2023-04-15T09:26:31.114Z,3.78
2023-04-15T09:28:57.544Z,4.22
2023-04-15T09:31:23.980Z,3.65
2023-04-15T09:33:50.426Z,3.67
2023-04-15T09:36:16.793Z,3.40
2023-04-15T09:38:43.119Z,3.38
2023-04-15T09:41:09.456Z,3.20
2023-04-15T09:43:35.833Z,3.70
2023-04-15T09:46:02.194Z,3.05
2023-04-15T09:48:28.548Z,3.63
2023-04-15T09:50:54.920Z,3.08
2023-04-15T09:53:21.241Z,3.35
2023-04-15T09:55:47.543Z,3.20
2023-04-15T09:58:13.921Z,3.40
2023-04-15T10:00:40.253Z,3.60
2023-04-15T10:03:06.669Z,3.45
2023-04-15T10:05:33.190Z,3.28
2023-04-15T10:07:59.496Z,2.53
2023-04-15T10:10:25.788Z,3.92
2023-04-15T10:12:52.140Z,3.13
2023-04-15T10:15:18.449Z,3.85
2023-04-15T10:17:44.849Z,2.70
2023-04-15T10:20:11.252Z,2.85
2023-04-15T10:22:37.586Z,3.20
2023-04-15T10:25:03.995Z,3.60
2023-04-15T10:27:30.392Z,3.45
2023-04-15T10:29:56.743Z,2.80
2023-04-15T10:32:23.141Z,2.55
2023-04-15T10:34:49.529Z,2.78
2023-04-15T10:37:15.855Z,3.13
2023-04-15T10:39:42.197Z,3.35
2023-04-15T10:42:08.598Z,2.58
2023-04-15T10:44:34.932Z,3.17
2023-04-15T10:47:01.296Z,2.72
2023-04-15T10:49:27.676Z,2.53
2023-04-15T10:51:54.005Z,2.72
2023-04-15T10:54:20.346Z,2.70
2023-04-15T10:56:46.707Z,2.90
2023-04-15T10:59:13.055Z,2.25
2023-04-15T11:01:39.401Z,3.00
2023-04-15T11:04:06.037Z,3.80
2023-04-15T11:06:32.617Z,2.15
2023-04-15T11:08:58.978Z,2.22
2023-04-15T11:11:25.368Z,2.80
2023-04-15T11:13:51.774Z,3.42
2023-04-15T11:16:19.330Z,2.85
2023-04-15T11:18:45.726Z,2.42
2023-04-15T11:21:12.041Z,3.20
2023-04-15T11:23:38.362Z,2.58
2023-04-15T11:26:04.754Z,2.05
2023-04-15T11:28:31.164Z,2.65
2023-04-15T11:30:57.486Z,2.38
2023-04-15T11:33:23.856Z,2.17
2023-04-15T11:35:50.206Z,2.20
2023-04-15T11:38:16.527Z,2.25
2023-04-15T11:40:45.274Z,2.45
2023-04-15T11:43:13.224Z,2.35
2023-04-15T11:45:39.622Z,2.00
2023-04-15T11:48:06.008Z,2.42
2023-04-15T11:50:32.341Z,2.97
2023-04-15T11:52:58.704Z,2.00
2023-04-15T11:55:25.078Z,3.00
2023-04-15T11:57:51.417Z,2.15
2023-04-15T12:00:17.748Z,1.98
2023-04-15T12:02:44.265Z,2.00
2023-04-15T12:05:10.766Z,1.65
2023-04-15T12:07:37.156Z,2.28
2023-04-15T12:10:05.790Z,1.50
2023-04-15T12:12:33.331Z,2.15
2023-04-15T12:14:59.681Z,1.50
2023-04-15T12:17:26.103Z,1.60
2023-04-15T12:19:52.413Z,1.90
2023-04-15T12:22:18.729Z,1.60
2023-04-15T12:24:45.109Z,1.73
2023-04-15T12:27:11.447Z,1.80
2023-04-15T12:29:37.793Z,1.52
2023-04-15T12:32:04.169Z,2.22
2023-04-15T12:34:30.532Z,2.30
2023-04-15T12:36:56.872Z,2.42
2023-04-15T12:39:23.376Z,1.70
2023-04-15T12:41:49.694Z,1.80
2023-04-15T12:44:16.015Z,1.83
2023-04-15T12:46:42.388Z,1.73
2023-04-15T12:49:08.736Z,1.55
2023-04-15T12:51:35.064Z,1.98
2023-04-15T12:54:01.523Z,1.45
2023-04-15T12:56:27.969Z,1.67
2023-04-15T12:58:54.326Z,2.50
2023-04-15T13:01:20.734Z,1.25
2023-04-15T13:03:47.252Z,1.95
2023-04-15T13:06:13.688Z,1.55
2023-04-15T13:08:42.641Z,1.35
2023-04-15T13:11:14.443Z,2.10
2023-04-15T13:13:40.815Z,1.30
2023-04-15T13:16:07.133Z,1.60
2023-04-15T13:18:33.457Z,1.58
2023-04-15T13:20:59.914Z,2.15
2023-04-15T13:23:26.274Z,1.77
2023-04-15T13:25:52.567Z,1.15
2023-04-15T13:28:18.926Z,1.80
2023-04-15T13:30:45.284Z,1.65
2023-04-15T13:33:11.594Z,1.40
2023-04-15T13:35:37.960Z,1.40
2023-04-15T13:38:04.286Z,1.60
2023-04-15T13:40:30.633Z,2.47
2023-04-15T13:42:56.983Z,1.30
2023-04-15T13:45:23.335Z,1.38
2023-04-15T13:47:49.687Z,1.27
2023-04-15T13:50:16.098Z,1.58
2023-04-15T13:52:42.432Z,1.17
2023-04-15T13:55:19.600Z,1.77
2023-04-15T13:57:48.269Z,1.65
2023-04-15T14:00:14.596Z,1.83
2023-04-15T14:02:41.062Z,1.77
2023-04-15T14:05:07.542Z,2.10
2023-04-15T14:07:33.943Z,1.48
2023-04-15T14:10:00.253Z,1.58
2023-04-15T14:12:26.614Z,1.10
2023-04-15T14:14:53.095Z,1.52
2023-04-15T14:17:19.390Z,1.33
2023-04-15T14:19:45.763Z,1.30
2023-04-15T14:22:12.104Z,1.08
2023-04-15T14:24:38.442Z,1.75
2023-04-15T14:27:04.817Z,1.55
2023-04-15T14:29:31.148Z,1.60
2023-04-15T14:32:11.285Z,1.38
2023-04-15T14:34:39.045Z,1.42
2023-04-15T14:37:05.457Z,1.50
2023-04-15T14:39:31.774Z,5.18
2023-04-15T14:41:58.110Z,2.08
2023-04-15T14:44:24.509Z,1.83
2023-04-15T14:46:50.820Z,2.40
2023-04-15T14:49:17.178Z,2.50
2023-04-15T14:51:43.642Z,2.78
2023-04-15T14:54:10.013Z,2.90
2023-04-15T14:56:36.458Z,3.75
2023-04-15T14:59:03.040Z,3.42
2023-04-15T15:01:29.641Z,5.00
2023-04-15T15:03:56.042Z,5.68
2023-04-15T15:06:22.417Z,6.45
2023-04-15T15:08:48.754Z,5.60
2023-04-15T15:11:15.111Z,4.95
2023-04-15T15:13:41.462Z,4.75
2023-04-15T15:16:07.833Z,4.13
2023-04-15T15:18:34.305Z,4.28
2023-04-15T15:21:00.790Z,4.20
2023-04-15T15:23:27.154Z,5.00
2023-04-15T15:25:53.520Z,3.90
2023-04-15T15:28:19.845Z,4.45
2023-04-15T15:30:46.196Z,4.32
2023-04-15T15:33:12.547Z,4.13
2023-04-15T15:35:38.853Z,3.30
2023-04-15T15:38:05.209Z,3.83
2023-04-15T15:40:31.640Z,3.67
2023-04-15T15:42:58.062Z,3.47
2023-04-15T15:45:24.389Z,3.38
2023-04-15T15:47:50.799Z,3.60
2023-04-15T15:50:17.156Z,3.25
2023-04-15T15:52:43.506Z,3.35
2023-04-15T15:55:09.861Z,3.00
2023-04-15T15:57:36.244Z,3.47
2023-04-15T16:00:11.170Z,3.65
2023-04-15T16:05:08.381Z,3.03
2023-04-15T16:07:34.690Z,3.35
2023-04-15T16:10:01.071Z,4.05
2023-04-15T16:12:27.419Z,3.38
2023-04-15T16:14:53.727Z,3.17
2023-04-15T16:17:20.127Z,2.90
2023-04-15T16:19:58.743Z,2.90
2023-04-15T16:22:26.979Z,2.78
2023-04-15T16:24:53.310Z,3.88
2023-04-15T16:27:19.641Z,2.97
2023-04-15T16:29:46.014Z,3.00
2023-04-15T16:32:12.375Z,2.75
2023-04-15T16:34:38.793Z,2.92
2023-04-15T16:37:05.150Z,2.58
2023-04-15T16:39:31.490Z,2.60
2023-04-15T16:41:57.832Z,2.75
2023-04-15T16:44:24.253Z,2.97
2023-04-15T16:46:50.592Z,2.80
2023-04-15T16:49:16.964Z,2.60
2023-04-15T16:51:43.332Z,2.25
2023-04-15T16:54:09.667Z,2.90
2023-04-15T16:56:36.006Z,2.67
2023-04-15T16:59:02.615Z,2.60
2023-04-15T17:01:29.190Z,2.83
2023-04-15T17:03:56.249Z,3.10
2023-04-15T17:06:22.767Z,2.75
2023-04-15T17:08:49.101Z,2.97
2023-04-15T17:11:15.404Z,2.85
2023-04-15T17:13:41.765Z,2.92
2023-04-15T17:16:08.139Z,3.03
2023-04-15T17:18:34.495Z,3.78
2023-04-15T17:21:00.873Z,3.20
2023-04-15T17:23:27.176Z,4.15
2023-04-15T17:25:53.477Z,4.32
2023-04-15T17:28:19.835Z,4.68
2023-04-15T17:30:46.200Z,3.60
2023-04-15T17:33:26.179Z,4.35
2023-04-15T17:35:58.925Z,6.35
2023-04-15T17:38:25.249Z,5.32
2023-04-15T17:40:51.569Z,4.22
2023-04-15T17:43:17.928Z,3.83
2023-04-15T17:45:44.241Z,4.00
2023-04-15T17:48:10.621Z,4.68
2023-04-15T17:50:37.014Z,3.85
2023-04-15T17:53:03.333Z,4.22
2023-04-15T17:55:29.648Z,4.47
2023-04-15T17:57:56.122Z,4.65
2023-04-15T18:00:22.462Z,5.40
2023-04-15T18:02:49.070Z,5.05
2023-04-15T18:05:15.794Z,5.88
2023-04-15T18:07:42.158Z,5.82
2023-04-15T18:10:08.558Z,4.35
2023-04-15T18:12:34.988Z,5.57
2023-04-15T18:15:01.344Z,5.15
2023-04-15T18:17:27.749Z,5.22
2023-04-15T18:19:54.137Z,5.20
2023-04-15T18:22:20.454Z,3.97
2023-04-15T18:24:46.759Z,3.60
2023-04-15T18:27:13.102Z,3.75
2023-04-15T18:29:39.466Z,3.92
2023-04-15T18:32:05.839Z,4.65
2023-04-15T18:34:32.251Z,3.83
2023-04-15T18:36:58.568Z,5.00
2023-04-15T18:39:24.877Z,4.45
2023-04-15T18:41:51.255Z,4.72
2023-04-15T18:44:17.578Z,4.15
2023-04-15T18:46:43.914Z,4.43
2023-04-15T18:49:10.271Z,5.93
2023-04-15T18:51:36.591Z,4.22
2023-04-15T18:54:02.932Z,4.47
2023-04-15T18:56:29.450Z,4.45
2023-04-15T18:59:27.105Z,4.22
2023-04-15T19:01:42.144Z,4.10
2023-04-15T19:04:08.573Z,5.53
2023-04-15T19:06:34.944Z,3.70
2023-04-15T19:09:01.562Z,3.80
2023-04-15T19:11:27.962Z,4.05
2023-04-15T19:13:54.285Z,4.00
2023-04-15T19:16:20.694Z,3.72
2023-04-15T19:18:47.049Z,3.88
2023-04-15T19:21:13.402Z,3.47
2023-04-15T19:23:39.780Z,3.95
2023-04-15T19:26:06.105Z,3.90
2023-04-15T19:28:32.457Z,3.33
2023-04-15T19:30:58.915Z,3.55
2023-04-15T19:33:25.270Z,3.20
2023-04-15T19:35:51.587Z,3.42
2023-04-15T19:38:17.940Z,3.83
2023-04-15T19:40:44.266Z,3.50
2023-04-15T19:43:10.581Z,3.67
2023-04-15T19:45:36.950Z,4.15
2023-04-15T19:48:03.365Z,3.03
2023-04-15T19:50:29.748Z,3.95
2023-04-15T19:52:56.138Z,2.80
2023-04-15T19:55:22.506Z,3.40
2023-04-15T19:57:48.855Z,2.95
2023-04-15T20:00:15.222Z,3.58
2023-04-15T20:02:41.645Z,3.50
2023-04-15T20:05:08.026Z,3.47
2023-04-15T20:07:34.385Z,3.78
2023-04-15T20:10:00.702Z,3.00
2023-04-15T20:12:50.016Z,3.20
2023-04-15T20:15:13.372Z,2.75
2023-04-15T20:17:39.757Z,2.65
2023-04-15T20:20:06.137Z,3.10
2023-04-15T20:22:32.512Z,3.10
2023-04-15T20:24:58.827Z,3.28
2023-04-15T20:27:25.145Z,3.72
2023-04-15T20:29:51.519Z,3.20
2023-04-15T20:32:17.889Z,3.58
2023-04-15T20:34:44.287Z,3.13
2023-04-15T20:37:10.642Z,3.22
2023-04-15T20:39:37.022Z,2.78
2023-04-15T20:42:03.414Z,3.05
2023-04-15T20:44:29.790Z,2.97
2023-04-15T20:46:56.150Z,3.17
2023-04-15T20:49:22.502Z,2.50
2023-04-15T20:51:48.866Z,3.13
2023-04-15T20:54:15.190Z,2.70
2023-04-15T20:56:41.560Z,2.60
2023-04-15T20:59:07.945Z,3.08
2023-04-15T21:01:34.317Z,3.13
2023-04-15T21:04:00.785Z,2.92
2023-04-15T21:06:27.172Z,2.38
2023-04-15T21:08:53.492Z,2.90
2023-04-15T21:11:38.798Z,3.08
2023-04-15T21:14:06.150Z,3.25
2023-04-15T21:16:32.565Z,2.90
2023-04-15T21:18:58.995Z,2.65
2023-04-15T21:21:25.388Z,2.70
2023-04-15T21:23:51.703Z,2.78
2023-04-15T21:26:18.036Z,3.05
2023-04-15T21:28:44.498Z,3.10
2023-04-15T21:31:10.882Z,2.97
2023-04-15T21:33:37.210Z,2.53
2023-04-15T21:36:03.601Z,3.45
2023-04-15T21:38:29.925Z,2.92
2023-04-15T21:40:56.248Z,2.90
2023-04-15T21:43:22.640Z,2.50
2023-04-15T21:46:21.152Z,2.20
2023-04-15T21:48:35.335Z,3.22
2023-04-15T21:51:01.719Z,3.10
2023-04-15T21:53:28.071Z,2.88
2023-04-15T21:55:54.429Z,2.72
2023-04-15T21:58:20.752Z,3.13
2023-04-15T22:00:47.071Z,3.08
2023-04-15T22:03:13.592Z,2.72
2023-04-15T22:05:40.078Z,3.38
2023-04-15T22:08:06.395Z,2.65
2023-04-15T22:10:32.773Z,2.53
2023-04-15T22:12:59.131Z,3.40
2023-04-15T22:15:25.443Z,2.53
2023-04-15T22:17:51.866Z,2.38
2023-04-15T22:20:18.248Z,2.80
2023-04-15T22:22:44.918Z,2.30
2023-04-15T22:25:11.347Z,2.78
2023-04-15T22:27:37.702Z,2.63
2023-04-15T22:30:04.036Z,2.55
2023-04-15T22:32:30.450Z,3.05
2023-04-15T22:34:56.793Z,2.35
2023-04-15T22:37:23.102Z,2.70
2023-04-15T22:39:49.476Z,2.67
2023-04-15T22:42:15.837Z,2.42
2023-04-15T22:44:42.145Z,2.35
2023-04-15T22:47:08.532Z,2.20
2023-04-15T22:49:34.860Z,2.70
2023-04-15T22:52:01.181Z,2.33
2023-04-15T22:54:27.558Z,2.80
2023-04-15T22:56:53.882Z,2.42
2023-04-15T22:59:20.172Z,2.53
2023-04-15T23:01:46.629Z,2.78
2023-04-15T23:04:23.451Z,2.80
2023-04-15T23:06:53.178Z,2.88
2023-04-15T23:09:19.496Z,3.00
2023-04-15T23:11:45.841Z,1.95
2023-04-15T23:14:12.207Z,2.50
2023-04-15T23:16:38.681Z,2.10
2023-04-15T23:19:05.240Z,2.55
2023-04-15T23:21:31.679Z,1.80
2023-04-15T23:23:58.052Z,2.38
2023-04-15T23:26:24.383Z,2.72
2023-04-15T23:28:50.855Z,2.70
2023-04-15T23:31:17.291Z,2.40
2023-04-15T23:33:43.652Z,2.70
2023-04-15T23:36:10.022Z,2.80
2023-04-15T23:38:36.335Z,2.33
2023-04-15T23:41:02.659Z,2.55
2023-04-15T23:43:29.040Z,2.67
2023-04-15T23:45:55.368Z,2.75
2023-04-15T23:48:21.687Z,2.78
2023-04-15T23:50:48.053Z,2.58
2023-04-15T23:53:14.359Z,2.67
2023-04-15T23:55:40.669Z,2.90
2023-04-15T23:58:07.049Z,3.58
